2022年5月16日

时间 代码 天气 温度 能见度 乌云 METAR/SPECI
17:30
V
27 °C 10 km+ - 210°   210° 4 kt METAR LFBC 161530Z AUTO 21004KT 180V250 CAVOK 27/11 Q1018 NOSIG
17:00
V
27 °C 10 km+ - 220°   220° 5 kt METAR LFBC 161500Z AUTO 22005KT 190V250 CAVOK 27/10 Q1018 NOSIG
16:30
V
27 °C 10 km+ - 230°   230° 5 kt METAR LFBC 161430Z AUTO 23005KT 180V280 CAVOK 27/11 Q1018 NOSIG
16:00
V
26 °C 10 km+ - 260°   260° 6 kt METAR LFBC 161400Z AUTO 26006KT 200V010 CAVOK 26/11 Q1018 NOSIG
15:30
V
26 °C 10 km+ - 230°   230° 5 kt METAR LFBC 161330Z AUTO 23005KT 180V280 CAVOK 26/12 Q1018 NOSIG
15:00
V
26 °C 10 km+ - 220°   220° 8 kt METAR LFBC 161300Z AUTO 22008KT 180V250 CAVOK 26/12 Q1018 NOSIG
14:30
V
26 °C 10 km+ - 230°   230° 8 kt METAR LFBC 161230Z AUTO 23008KT 200V270 CAVOK 26/11 Q1018 NOSIG
14:00
V
26 °C 10 km+ - 240°   240° 8 kt METAR LFBC 161200Z AUTO 24008KT 200V270 CAVOK 26/12 Q1019 NOSIG
13:30
V
26 °C 10 km+ - 240°   240° 10 kt METAR LFBC 161130Z AUTO 24010KT CAVOK 26/12 Q1019 NOSIG
13:00
V
25 °C 10 km+ - 220°   220° 8 kt METAR LFBC 161100Z AUTO 22008KT 200V260 CAVOK 25/12 Q1019 NOSIG
12:30
V
24 °C 10 km+ - 210°   210° 6 kt METAR LFBC 161030Z AUTO 21006KT 160V270 CAVOK 24/14 Q1018 NOSIG
12:00
V
23 °C 10 km+ - 190°   190° 6 kt METAR LFBC 161000Z AUTO 19006KT 140V220 CAVOK 23/17 Q1018 NOSIG
11:30
V
23 °C 10 km+ - 180°   180° 6 kt METAR LFBC 160930Z AUTO 18006KT 150V220 CAVOK 23/17 Q1018 NOSIG
11:00
V
22 °C 10 km+ - 180°   180° 7 kt METAR LFBC 160900Z AUTO 18007KT 150V210 CAVOK 22/17 Q1018 NOSIG
10:30
V
22 °C 10 km+ - 150°   150° 9 kt METAR LFBC 160830Z AUTO 15009KT 130V190 CAVOK 22/17 Q1018 NOSIG
10:00
V
21 °C 10 km+ - 140°   140° 8 kt METAR LFBC 160800Z AUTO 14008KT 100V160 CAVOK 21/17 Q1018
09:30
V
20 °C 10 km+ - 160°   160° 4 kt METAR LFBC 160730Z AUTO 16004KT 120V200 CAVOK 20/17 Q1018 TEMPO BKN007
09:00
V
19 °C 10 km+ - 100°   100° 4 kt METAR LFBC 160700Z AUTO 10004KT 030V140 CAVOK 19/17 Q1017 TEMPO BKN007
08:30
V
17 °C 10 km+ - 070°   070° 3 kt METAR LFBC 160630Z AUTO 07003KT 040V100 CAVOK 17/17 Q1017 TEMPO BKN007
08:00
V
15 °C 9 km - Var   Var 2 kt METAR LFBC 160600Z AUTO VRB02KT 9000 FEW002 15/15 Q1017 TEMPO BKN007
07:30
L
14 °C 350 m - Var   Var 2 kt METAR LFBC 160530Z AUTO VRB02KT 0450 0350 R24/0550U FG VV/// 14/14 Q1017 TEMPO BKN007 BECMG 9999 NSW
07:00
L
15 °C 700 m - 040°   040° 3 kt METAR LFBC 160500Z AUTO 04003KT 010V070 0750 0700 R24/1000U FG VV/// 15/15 Q1017
06:30
L
14 °C 700 m - 010°   010° 3 kt METAR LFBC 160430Z AUTO 01003KT 0800 0700 R24/1000D FG VV/// 14/14 Q1017
06:00
L
14 °C 400 m - Var   Var 1 kt METAR LFBC 160400Z AUTO VRB01KT 0450 0400 R24/0450D FG VV/// 14/14 Q1017
05:30
L
14 °C 350 m - 090°   090° 3 kt METAR LFBC 160330Z AUTO 09003KT 0400 0350 R24/0600N FG VV/// 14/13 Q1017
05:00
L
13 °C 400 m - Var   Var 2 kt METAR LFBC 160300Z AUTO VRB02KT 0600 0400 R24/1200U FG VV/// 13/13 Q1016
04:30
L
14 °C 800 m - Var   000° 0 kt METAR LFBC 160230Z AUTO 00000KT 4600 0800 R24/0900N BCFG VV/// 14/13 Q1017
04:00
L
14 °C 700 m - Var   000° 0 kt METAR LFBC 160200Z AUTO 00000KT 0700 R24/P2000U FG NSC 14/13 Q1016
03:30
I
15 °C 2,7 km - 070°   070° 1 kt METAR LFBC 160130Z AUTO 07001KT 7000 2700 NSC 15/13 Q1016
03:00
M
16 °C 6 km - Var   Var 3 kt METAR LFBC 160100Z AUTO VRB03KT 6000 NSC 16/16 Q1017
02:30
M
16 °C 6 km - Var   Var 1 kt METAR LFBC 160030Z AUTO VRB01KT 6000 NSC 16/15 Q1017
02:00
M
16 °C 7 km - Var   000° 0 kt METAR LFBC 160000Z AUTO 00000KT 7000 NSC 16/15 Q1017
01:30
M
16 °C 6 km - 130°   130° 3 kt METAR LFBC 152330Z AUTO 13003KT 6000 NSC 16/15 Q1017
01:00
V
17 °C 10 km+ - 030°   030° 3 kt METAR LFBC 152300Z AUTO 03003KT 350V060 CAVOK 17/16 Q1017
00:30
V
17 °C 10 km+ - 340°   340° 5 kt METAR LFBC 152230Z AUTO 34005KT 9999 //////TCU 17/16 Q1016
00:00
V
17 °C 10 km+ - 340°   340° 5 kt METAR LFBC 152200Z AUTO 34005KT CAVOK 17/16 Q1016

2022年5月15日

时间 代码 天气 温度 能见度 乌云 METAR/SPECI
23:30
V
18 °C 10 km+ - 290°   290° 4 kt METAR LFBC 152130Z AUTO 29004KT 9999 //////TCU 18/17 Q1016
23:00
V
18 °C 10 km+ - 260°   260° 3 kt METAR LFBC 152100Z AUTO 26003KT 9999 ///TCU 18/17 Q1016
22:30
V
19 °C 10 km+ - 030°   030° 5 kt METAR LFBC 152030Z AUTO 03005KT 340V090 9999 -RA //////TCU 19/17 Q1015
22:00
V
19 °C 10 km+ - 060°   060° 3 kt METAR LFBC 152000Z AUTO 06003KT 030V130 9999 -RA //////CB 19/16 Q1015
21:30
V
20 °C 10 km+ - 010°   010° 4 kt METAR LFBC 151930Z AUTO 01004KT 9999 ///CB 20/15 Q1014
21:00
V
20 °C 10 km+ - 340°   340° 4 kt METAR LFBC 151900Z AUTO 34004KT CAVOK 20/16 Q1013
20:30
V
21 °C 10 km+ - 340°   340° 7 kt METAR LFBC 151830Z AUTO 34007KT CAVOK 21/16 Q1013
20:00
V
22 °C 10 km+ - 200°   200° 4 kt METAR LFBC 151800Z AUTO 20004KT 9999 VCTS ///CB 22/16 Q1013
19:30
V
23 °C 10 km+ - Var   Var 2 kt METAR LFBC 151730Z AUTO VRB02KT 9999 TS //////CB 23/14 Q1012
19:00
V
22 °C 10 km+ - Var   Var 3 kt METAR LFBC 151700Z AUTO VRB03KT 9999 VCTS ///CB 22/14 Q1012
18:30
V
22 °C 10 km+ - 320°   320° 7 kt METAR LFBC 151630Z AUTO 32007KT 280V350 9999 //////CB 22/14 Q1011
18:00
V
24 °C 10 km+ - 310°   310° 13 kt METAR LFBC 151600Z AUTO 31013KT 270V340 9999 VCTS ///CB 24/15 Q1011
17:30
V
25 °C 10 km+ - 290°   290° 13 kt METAR LFBC 151530Z AUTO 29013KT 250V330 9999 ///CB 25/14 Q1011
17:00
V
27 °C 10 km+ - 270°   270° 11 kt METAR LFBC 151500Z AUTO 27011KT 230V310 CAVOK 27/13 Q1011
16:30
V
29 °C 10 km+ - 240°   240° 9 kt METAR LFBC 151430Z AUTO 24009KT CAVOK 29/14 Q1011
16:00
V
29 °C 10 km+ - 230°   230° 9 kt METAR LFBC 151400Z AUTO 23009KT 200V260 CAVOK 29/14 Q1011
15:30
V
29 °C 10 km+ - 220°   220° 7 kt METAR LFBC 151330Z AUTO 22007KT CAVOK 29/15 Q1011
15:00
V
28 °C 10 km+ - 200°   200° 7 kt METAR LFBC 151300Z AUTO 20007KT 160V230 CAVOK 28/17 Q1011
14:30
V
27 °C 10 km+ - 210°   210° 4 kt METAR LFBC 151230Z AUTO 21004KT 150V260 CAVOK 27/19 Q1011
14:00
V
25 °C 10 km+ - 170°   170° 6 kt METAR LFBC 151200Z AUTO 17006KT CAVOK 25/19 Q1012
13:30
V
25 °C 10 km+ - 150°   150° 7 kt METAR LFBC 151130Z AUTO 15007KT 120V180 9999 ///CB 25/20 Q1011
13:00
V
22 °C 10 km+ 5.600 ft 180°   180° 5 kt METAR LFBC 151100Z AUTO 18005KT 150V220 9999 -TSRA FEW032/// BKN056/// BKN090/// ///CB 22/18 Q1011
12:30
V
23 °C 10 km+ - 160°   160° 8 kt METAR LFBC 151030Z AUTO 16008KT 9999 -RA VCTS ///CB 23/18 Q1012
12:00
V
23 °C 10 km+ 11.000 ft 140°   140° 6 kt METAR LFBC 151000Z AUTO 14006KT 9999 FEW041/// BKN110/// BKN130/// ///CB 23/18 Q1011
11:30
V
24 °C 10 km+ - 160°   160° 7 kt METAR LFBC 150930Z AUTO 16007KT 9999 ///CB 24/17 Q1011
11:00
V
25 °C 10 km+ - 160°   160° 8 kt METAR LFBC 150900Z AUTO 16008KT CAVOK 25/17 Q1011
10:30
V
23 °C 10 km+ - 160°   160° 7 kt METAR LFBC 150830Z AUTO 16007KT CAVOK 23/17 Q1011
10:00
V
22 °C 10 km+ - 170°   170° 6 kt METAR LFBC 150800Z AUTO 17006KT 140V200 CAVOK 22/17 Q1011
09:30
V
20 °C 10 km+ - 140°   140° 4 kt METAR LFBC 150730Z AUTO 14004KT CAVOK 20/16 Q1011
09:00
V
19 °C 10 km+ - 140°   140° 6 kt METAR LFBC 150700Z AUTO 14006KT CAVOK 19/16 Q1011
08:30
V
19 °C 10 km+ - 120°   120° 4 kt METAR LFBC 150630Z AUTO 12004KT 090V160 CAVOK 19/16 Q1011
08:00
V
17 °C 10 km+ - 130°   130° 4 kt METAR LFBC 150600Z AUTO 13004KT 100V160 CAVOK 17/15 Q1011
07:30
V
17 °C 10 km+ - Var   Var 2 kt METAR LFBC 150530Z AUTO VRB02KT CAVOK 17/15 Q1011
07:00
V
17 °C 10 km+ - 140°   140° 6 kt METAR LFBC 150500Z AUTO 14006KT CAVOK 17/15 Q1011
06:30
V
16 °C 10 km+ - 100°   100° 4 kt METAR LFBC 150430Z AUTO 10004KT CAVOK 16/15 Q1011
06:00
V
16 °C 10 km+ - 100°   100° 8 kt METAR LFBC 150400Z AUTO 10008KT CAVOK 16/15 Q1011
05:30
V
15 °C 10 km+ - Var   000° 0 kt METAR LFBC 150330Z AUTO 00000KT CAVOK 15/15 Q1012
05:00
V
15 °C 10 km+ - Var   000° 0 kt METAR LFBC 150300Z AUTO 00000KT CAVOK 15/15 Q1012
04:30
V
15 °C 9 km - Var   Var 1 kt METAR LFBC 150230Z AUTO VRB01KT 9000 NSC 15/15 Q1013
04:00
M
15 °C 7 km - 150°   150° 2 kt METAR LFBC 150200Z AUTO 15002KT 7000 NSC 15/15 Q1013
03:30
M
16 °C 6 km - 170°   170° 3 kt METAR LFBC 150130Z AUTO 17003KT 6000 NSC 16/15 Q1013
03:00
M
16 °C 7 km - 170°   170° 5 kt METAR LFBC 150100Z AUTO 17005KT 7000 NSC 16/16 Q1013
02:30
V
16 °C 8 km - 170°   170° 4 kt METAR LFBC 150030Z AUTO 17004KT 8000 NSC 16/16 Q1013
02:00
V
17 °C 9 km - 140°   140° 4 kt METAR LFBC 150000Z AUTO 14004KT 9000 NSC 17/16 Q1013
01:30
V
17 °C 8 km - Var   Var 2 kt METAR LFBC 142330Z AUTO VRB02KT 8000 //////CB 17/16 Q1013
01:00
M
17 °C 7 km - 140°   140° 3 kt METAR LFBC 142300Z AUTO 14003KT 7000 NSC 17/16 Q1014
00:30
M
17 °C 7 km - 180°   180° 3 kt METAR LFBC 142230Z AUTO 18003KT 7000 NSC 17/16 Q1014
00:00
V
17 °C 9 km - Var   000° 0 kt METAR LFBC 142200Z AUTO 00000KT 9000 NSC 17/16 Q1014

2022年5月14日

时间 代码 天气 温度 能见度 乌云 METAR/SPECI
23:30
V
17 °C 10 km+ - 360°   360° 6 kt METAR LFBC 142130Z AUTO 36006KT 330V030 9999 //////TCU 17/16 Q1014
23:00
M
17 °C 7 km - 010°   010° 11 kt METAR LFBC 142100Z AUTO 01011KT 7000 -RA ///CB 17/16 Q1014
22:30
M
17 °C 6 km - 010°   010° 7 kt METAR LFBC 142030Z AUTO 01007KT 6000 RA ///CB 17/16 Q1015
22:00
M
18 °C 7 km - 120°   120° 5 kt METAR LFBC 142000Z AUTO 12005KT 070V150 7000 RA //////CB 18/16 Q1016
21:30
V
18 °C 10 km+ - 250°   250° 4 kt METAR LFBC 141930Z AUTO 25004KT 210V290 9999 -RA VCTS ///CB 18/16 Q1015
21:00
V
19 °C 10 km+ - 280°   280° 9 kt METAR LFBC 141900Z AUTO 28009KT 240V330 9999 -RA VCTS ///CB 19/15 Q1015
20:30
V
20 °C 10 km+ - 280°   280° 11 kt METAR LFBC 141830Z AUTO 28011KT 250V320 9999 TS //////CB 20/16 Q1015
20:00
V
20 °C 10 km+ - 270°   270° 21 36 kt METAR LFBC 141800Z AUTO 27021G36KT 230V300 9999 -RA //////CB 20/16 Q1014
19:30
V
29 °C 10 km+ - 100°   100° 8 kt METAR LFBC 141730Z AUTO 10008KT 9999 //////CB 29/17 Q1012
19:00
V
31 °C 10 km+ - 100°   100° 9 kt METAR LFBC 141700Z AUTO 10009KT CAVOK 31/16 Q1012
18:30
V
31 °C 10 km+ - 110°   110° 7 kt METAR LFBC 141630Z AUTO 11007KT 070V130 CAVOK 31/13 Q1013
18:00
V
32 °C 10 km+ - 120°   120° 9 kt METAR LFBC 141600Z AUTO 12009KT CAVOK 32/12 Q1013
17:30
V
32 °C 10 km+ - 110°   110° 10 kt METAR LFBC 141530Z AUTO 11010KT CAVOK 32/12 Q1013
17:00
V
32 °C 10 km+ - 120°   120° 8 kt METAR LFBC 141500Z AUTO 12008KT 070V150 CAVOK 32/13 Q1013
较旧的数据

下载我们的应用程序

在您的手机和平板电脑上轻松访问所有航空天气。
有许多网站上没有的功能,如离线支持和个人机场列表。

Studio Eveline

Benalmádena
España